createdAt,value
2019-05-22T00:02:46.503Z,89.21
2019-05-22T00:05:18.109Z,89.34
2019-05-22T00:07:47.440Z,89.26
2019-05-22T00:10:22.608Z,89.22
2019-05-22T00:12:53.813Z,89.55
2019-05-22T00:15:24.386Z,89.15
2019-05-22T00:17:53.965Z,89.17
2019-05-22T00:20:24.160Z,88.18
2019-05-22T00:22:53.279Z,87.24
2019-05-22T00:25:26.036Z,88.12
2019-05-22T00:27:55.926Z,89.45
2019-05-22T00:30:26.778Z,88.87
2019-05-22T00:32:57.316Z,89.01
2019-05-22T00:35:26.505Z,90.14
2019-05-22T00:37:56.578Z,90.80
2019-05-22T00:40:28.811Z,89.18
2019-05-22T00:43:05.041Z,88.99
2019-05-22T00:45:30.552Z,89.49
2019-05-22T00:47:59.692Z,89.72
2019-05-22T00:50:32.749Z,90.32
2019-05-22T00:53:22.873Z,89.93
2019-05-22T00:56:09.866Z,89.44
2019-05-22T00:58:46.394Z,88.52
2019-05-22T01:01:23.609Z,89.60
2019-05-22T01:03:56.411Z,88.06
2019-05-22T01:06:28.950Z,89.10
2019-05-22T01:09:01.267Z,88.85
2019-05-22T01:11:31.824Z,88.23
2019-05-22T01:14:01.089Z,87.04
2019-05-22T01:16:30.547Z,88.44
2019-05-22T01:18:59.527Z,88.54
2019-05-22T01:21:30.325Z,89.78
2019-05-22T01:23:59.402Z,90.11
2019-05-22T01:26:28.894Z,90.24
2019-05-22T01:28:57.682Z,89.57
2019-05-22T01:31:30.280Z,91.27
2019-05-22T01:34:03.005Z,88.70
2019-05-22T01:36:50.348Z,88.93
2019-05-22T01:39:36.449Z,90.12
2019-05-22T01:42:10.268Z,88.85
2019-05-22T01:44:40.075Z,88.78
2019-05-22T01:47:15.953Z,88.74
2019-05-22T01:49:51.545Z,87.73
2019-05-22T01:52:22.170Z,89.08
2019-05-22T01:54:52.022Z,89.29
2019-05-22T01:57:22.849Z,89.07
2019-05-22T01:59:52.377Z,89.03
2019-05-22T02:02:23.678Z,87.59
2019-05-22T02:04:52.360Z,87.69
2019-05-22T02:07:21.247Z,88.16
2019-05-22T02:09:51.711Z,89.38
2019-05-22T02:12:40.583Z,89.13
2019-05-22T02:15:10.586Z,88.27
2019-05-22T02:17:39.179Z,88.33
2019-05-22T02:20:09.113Z,87.57
2019-05-22T02:22:39.611Z,87.04
2019-05-22T02:25:09.221Z,88.35
2019-05-22T02:27:39.463Z,89.15
2019-05-22T02:30:09.882Z,87.56
2019-05-22T02:32:40.497Z,88.08
2019-05-22T02:35:10.506Z,89.22
2019-05-22T02:37:41.175Z,88.64
2019-05-22T02:40:19.004Z,88.53
2019-05-22T02:42:48.211Z,89.00
2019-05-22T02:45:16.780Z,88.12
2019-05-22T02:47:46.276Z,87.62
2019-05-22T02:50:16.171Z,88.46
2019-05-22T02:52:44.858Z,87.68
2019-05-22T02:55:13.973Z,86.81
2019-05-22T02:57:42.939Z,89.10
2019-05-22T03:00:14.231Z,88.65
2019-05-22T03:02:50.377Z,88.78
2019-05-22T03:05:19.530Z,90.22
2019-05-22T03:07:51.222Z,89.42
2019-05-22T03:10:22.423Z,87.92
2019-05-22T03:12:51.107Z,88.07
2019-05-22T03:15:23.651Z,89.31
2019-05-22T03:17:58.725Z,88.47
2019-05-22T03:20:28.462Z,89.22
2019-05-22T03:23:16.953Z,90.11
2019-05-22T03:25:45.845Z,90.29
2019-05-22T03:28:14.829Z,91.10
2019-05-22T03:30:46.250Z,90.86
2019-05-22T03:33:16.008Z,89.79
2019-05-22T03:35:46.784Z,90.28
2019-05-22T03:38:17.672Z,89.81
2019-05-22T03:40:48.204Z,89.24
2019-05-22T03:43:21.792Z,88.44
2019-05-22T03:45:51.383Z,90.25
2019-05-22T03:48:20.785Z,88.11
2019-05-22T03:50:51.356Z,88.81
2019-05-22T03:53:20.447Z,89.25
2019-05-22T03:55:49.083Z,88.78
2019-05-22T03:58:18.274Z,88.98
2019-05-22T04:00:51.699Z,89.42
2019-05-22T04:03:20.814Z,89.35
2019-05-22T04:05:51.223Z,87.84
2019-05-22T04:08:24.615Z,88.21
2019-05-22T04:11:04.647Z,88.91
2019-05-22T04:13:33.728Z,89.27
2019-05-22T04:16:05.901Z,89.30
2019-05-22T04:18:36.757Z,88.75
2019-05-22T04:21:05.658Z,89.65
2019-05-22T04:23:35.406Z,90.05
2019-05-22T04:26:08.137Z,89.98
2019-05-22T04:28:49.478Z,90.07
2019-05-22T04:31:18.955Z,90.50
2019-05-22T04:33:47.632Z,89.77
2019-05-22T04:36:17.654Z,90.47
2019-05-22T04:38:46.240Z,89.34
2019-05-22T04:41:16.649Z,89.56
2019-05-22T04:43:46.039Z,87.74
2019-05-22T04:46:14.738Z,86.80
2019-05-22T04:48:46.139Z,85.17
2019-05-22T04:51:40.163Z,85.58
2019-05-22T04:54:08.962Z,86.37
2019-05-22T04:56:38.051Z,85.14
2019-05-22T04:59:07.672Z,86.20
2019-05-22T05:01:36.723Z,83.67
2019-05-22T05:04:06.102Z,80.35
2019-05-22T05:06:37.103Z,80.65
2019-05-22T05:09:09.995Z,81.20
2019-05-22T05:11:39.906Z,78.84
2019-05-22T05:14:08.329Z,78.84
2019-05-22T05:16:37.405Z,79.12
2019-05-22T05:19:06.568Z,79.73
2019-05-22T05:21:37.406Z,79.18
2019-05-22T05:24:06.593Z,78.71
2019-05-22T05:26:37.097Z,77.50
2019-05-22T05:29:10.200Z,77.72
2019-05-22T05:31:39.622Z,77.70
2019-05-22T05:34:45.891Z,78.78
2019-05-22T05:37:17.274Z,77.13
2019-05-22T05:40:25.352Z,80.73
2019-05-22T05:42:54.341Z,81.94
2019-05-22T05:45:23.727Z,77.63
2019-05-22T05:47:52.641Z,77.73
2019-05-22T05:50:37.843Z,77.57
2019-05-22T05:52:54.139Z,75.14
2019-05-22T05:55:26.922Z,75.55
2019-05-22T05:58:27.042Z,75.90
2019-05-22T06:01:02.457Z,74.92
2019-05-22T06:03:38.640Z,74.32
2019-05-22T06:06:54.361Z,74.54
2019-05-22T06:09:25.383Z,74.77
2019-05-22T06:11:57.601Z,77.01
2019-05-22T06:14:29.963Z,73.96
2019-05-22T06:17:37.943Z,73.51
2019-05-22T06:20:11.079Z,73.52
2019-05-22T06:22:42.335Z,70.92
2019-05-22T06:25:13.694Z,69.07
2019-05-22T06:27:55.178Z,69.20
2019-05-22T06:30:46.497Z,69.18
2019-05-22T06:33:43.655Z,70.20
2019-05-22T06:36:15.958Z,68.14
2019-05-22T06:39:06.877Z,68.89
2019-05-22T06:41:37.984Z,71.61
2019-05-22T06:44:39.359Z,67.86
2019-05-22T06:47:13.080Z,68.17
2019-05-22T06:49:53.432Z,68.16
2019-05-22T06:52:22.331Z,71.96
2019-05-22T06:54:51.456Z,68.15
2019-05-22T06:57:38.443Z,68.43
2019-05-22T07:00:17.861Z,69.01
2019-05-22T07:02:46.401Z,67.64
2019-05-22T07:05:15.590Z,68.73
2019-05-22T07:07:44.585Z,71.48
2019-05-22T07:10:13.974Z,67.69
2019-05-22T07:12:43.082Z,68.12
2019-05-22T07:15:45.638Z,67.45
2019-05-22T07:18:17.178Z,69.28
2019-05-22T07:20:46.781Z,68.61
2019-05-22T07:23:18.274Z,66.23
2019-05-22T07:25:48.667Z,64.80
2019-05-22T07:28:19.733Z,64.18
2019-05-22T07:30:48.806Z,64.49
2019-05-22T07:33:19.043Z,64.90
2019-05-22T07:36:07.634Z,64.58
2019-05-22T07:38:19.921Z,61.31
2019-05-22T07:40:51.221Z,61.21
2019-05-22T07:43:22.473Z,66.15
2019-05-22T07:45:52.086Z,62.11
2019-05-22T07:48:24.361Z,60.42
2019-05-22T07:50:54.165Z,63.45
2019-05-22T07:53:24.596Z,63.79
2019-05-22T07:55:53.991Z,64.00
2019-05-22T07:58:23.259Z,62.94
2019-05-22T08:00:58.562Z,60.66
2019-05-22T08:03:29.637Z,61.87
2019-05-22T08:05:58.740Z,63.07
2019-05-22T08:08:31.226Z,62.26
2019-05-22T08:10:59.725Z,60.99
2019-05-22T08:13:29.682Z,61.49
2019-05-22T08:15:58.534Z,62.14
2019-05-22T08:18:29.782Z,60.35
2019-05-22T08:20:58.381Z,61.01
2019-05-22T08:23:28.798Z,61.17
2019-05-22T08:25:59.474Z,60.24
2019-05-22T08:28:31.110Z,58.82
2019-05-22T08:31:00.638Z,61.08
2019-05-22T08:33:31.072Z,60.19
2019-05-22T08:36:00.547Z,58.72
2019-05-22T08:38:32.091Z,60.05
2019-05-22T08:41:02.047Z,58.31
2019-05-22T08:43:52.375Z,56.68
2019-05-22T08:46:04.313Z,56.73
2019-05-22T08:52:23.424Z,55.59
2019-05-22T08:54:48.207Z,53.31
2019-05-22T08:57:19.657Z,54.75
2019-05-22T08:59:48.207Z,53.65
2019-05-22T09:02:17.256Z,54.68
2019-05-22T09:04:45.953Z,52.81
2019-05-22T09:07:14.633Z,48.84
2019-05-22T09:09:43.233Z,52.36
2019-05-22T09:12:12.350Z,52.53
2019-05-22T09:14:41.263Z,55.53
2019-05-22T09:17:10.860Z,57.94
2019-05-22T09:19:39.950Z,54.75
2019-05-22T09:22:09.129Z,52.00
2019-05-22T09:24:38.469Z,58.35
2019-05-22T09:27:08.471Z,55.22
2019-05-22T09:29:37.658Z,59.83
2019-05-22T09:32:07.630Z,52.21
2019-05-22T09:34:37.717Z,51.64
2019-05-22T09:37:07.005Z,52.22
2019-05-22T09:39:35.894Z,54.35
2019-05-22T09:42:04.577Z,55.36
2019-05-22T09:44:33.146Z,53.21
2019-05-22T09:47:01.877Z,52.38
2019-05-22T09:49:30.495Z,51.98
2019-05-22T09:51:59.795Z,51.82
2019-05-22T09:54:28.389Z,51.54
2019-05-22T09:56:56.984Z,52.37
2019-05-22T09:59:25.786Z,51.69
2019-05-22T10:01:54.549Z,51.16
2019-05-22T10:04:23.773Z,51.63
2019-05-22T10:06:52.569Z,53.25
2019-05-22T10:09:21.041Z,51.29
2019-05-22T10:11:49.944Z,51.68
2019-05-22T10:14:19.282Z,49.49
2019-05-22T10:16:48.181Z,50.20
2019-05-22T10:19:17.009Z,50.50
2019-05-22T10:21:47.561Z,55.60
2019-05-22T10:24:16.253Z,50.81
2019-05-22T10:26:44.998Z,49.65
2019-05-22T10:29:13.503Z,51.53
2019-05-22T10:31:42.211Z,54.08
2019-05-22T10:34:10.705Z,53.40
2019-05-22T10:36:42.877Z,50.23
2019-05-22T10:39:10.353Z,52.22
2019-05-22T10:41:39.335Z,50.54
2019-05-22T10:44:08.065Z,52.24
2019-05-22T10:46:37.240Z,50.81
2019-05-22T10:49:05.932Z,51.51
2019-05-22T10:51:34.403Z,52.74
2019-05-22T10:54:03.097Z,50.46
2019-05-22T10:56:32.185Z,51.72
2019-05-22T10:59:01.727Z,52.48
2019-05-22T11:01:32.889Z,49.20
2019-05-22T11:04:02.330Z,49.48
2019-05-22T11:06:30.887Z,53.58
2019-05-22T11:08:59.984Z,52.43
2019-05-22T11:11:28.864Z,51.16
2019-05-22T11:14:01.816Z,56.09
2019-05-22T11:16:30.825Z,50.97
2019-05-22T11:19:01.406Z,51.13
2019-05-22T11:21:31.021Z,50.79
2019-05-22T11:23:59.827Z,51.00
2019-05-22T11:26:28.907Z,52.03
2019-05-22T11:28:58.152Z,53.16
2019-05-22T11:31:26.950Z,51.82
2019-05-22T11:33:55.738Z,56.60
2019-05-22T11:36:24.530Z,57.11
2019-05-22T11:38:53.306Z,54.14
2019-05-22T11:41:22.010Z,53.61
2019-05-22T11:43:51.163Z,54.37
2019-05-22T11:46:20.251Z,55.33
2019-05-22T11:48:49.581Z,54.92
2019-05-22T11:51:20.678Z,58.24
2019-05-22T11:53:49.619Z,54.39
2019-05-22T11:56:18.998Z,55.16
2019-05-22T11:58:47.577Z,57.11
2019-05-22T12:01:16.857Z,54.81
2019-05-22T12:03:46.969Z,56.12
2019-05-22T12:06:15.977Z,54.08
2019-05-22T12:08:48.365Z,57.31
2019-05-22T12:11:19.050Z,53.08
2019-05-22T12:13:48.973Z,56.48
2019-05-22T12:16:19.381Z,57.92
2019-05-22T12:18:48.565Z,57.46
2019-05-22T12:21:17.235Z,56.86
2019-05-22T12:23:46.269Z,56.16
2019-05-22T12:26:15.035Z,55.96
2019-05-22T12:28:43.716Z,55.14
2019-05-22T12:31:13.260Z,56.33
2019-05-22T12:33:42.463Z,54.28
2019-05-22T12:36:13.492Z,54.31
2019-05-22T12:38:42.398Z,53.63
2019-05-22T12:41:13.512Z,54.98
2019-05-22T12:43:45.036Z,55.05
2019-05-22T12:46:14.400Z,54.20
2019-05-22T12:48:44.627Z,54.42
2019-05-22T12:51:14.623Z,57.78
2019-05-22T12:53:44.310Z,55.49
2019-05-22T12:56:13.628Z,54.69
2019-05-22T12:58:43.716Z,54.69
2019-05-22T13:01:13.193Z,57.00
2019-05-22T13:03:42.314Z,60.60
2019-05-22T13:06:11.524Z,55.95
2019-05-22T13:08:41.346Z,59.44
2019-05-22T13:11:10.532Z,58.09
2019-05-22T13:13:39.321Z,57.17
2019-05-22T13:16:09.342Z,54.98
2019-05-22T13:18:39.102Z,57.22
2019-05-22T13:21:11.646Z,59.17
2019-05-22T13:23:42.775Z,62.60
2019-05-22T13:26:11.470Z,61.78
2019-05-22T13:28:43.905Z,57.65
2019-05-22T13:31:13.668Z,59.15
2019-05-22T13:33:44.067Z,58.96
2019-05-22T13:36:13.808Z,61.72
2019-05-22T13:38:42.763Z,61.12
2019-05-22T13:41:11.875Z,58.38
2019-05-22T13:43:41.088Z,59.39
2019-05-22T13:46:10.157Z,60.84
2019-05-22T13:48:38.890Z,57.72
2019-05-22T13:51:07.991Z,62.02
2019-05-22T13:53:37.270Z,58.37
2019-05-22T13:56:06.886Z,58.78
2019-05-22T13:58:35.698Z,59.26
2019-05-22T14:01:05.028Z,62.14
2019-05-22T14:03:34.559Z,61.11
2019-05-22T14:06:03.516Z,58.36
2019-05-22T14:08:32.623Z,61.39
2019-05-22T14:11:02.360Z,57.35
2019-05-22T14:13:32.044Z,61.21
2019-05-22T14:16:00.841Z,58.13
2019-05-22T14:18:29.678Z,60.84
2019-05-22T14:21:01.456Z,61.82
2019-05-22T14:23:31.391Z,60.06
2019-05-22T14:26:00.756Z,59.22
2019-05-22T14:28:29.846Z,62.09
2019-05-22T14:30:58.571Z,63.61
2019-05-22T14:33:28.562Z,60.02
2019-05-22T14:35:58.254Z,63.44
2019-05-22T14:38:27.859Z,61.23
2019-05-22T14:40:56.967Z,59.98
2019-05-22T14:43:26.284Z,63.87
2019-05-22T14:45:55.091Z,63.92
2019-05-22T14:48:23.824Z,62.16
2019-05-22T14:50:53.084Z,63.50
2019-05-22T14:53:21.702Z,61.39
2019-05-22T14:55:51.724Z,61.33
2019-05-22T14:58:21.419Z,61.16
2019-05-22T15:00:52.467Z,64.03
2019-05-22T15:03:21.697Z,61.95
2019-05-22T15:05:51.200Z,62.08
2019-05-22T15:08:20.110Z,62.87
2019-05-22T15:10:49.708Z,61.95
2019-05-22T15:13:18.637Z,63.91
2019-05-22T15:15:47.307Z,62.95
2019-05-22T15:18:16.335Z,65.33
2019-05-22T15:21:00.686Z,65.56
2019-05-22T15:23:31.885Z,63.91
2019-05-22T15:26:01.788Z,62.78
2019-05-22T15:28:31.794Z,62.63
2019-05-22T15:31:01.327Z,64.75
2019-05-22T15:33:30.655Z,66.92
2019-05-22T15:35:59.463Z,62.56
2019-05-22T15:38:29.506Z,63.16
2019-05-22T15:40:58.126Z,65.06
2019-05-22T15:43:28.053Z,65.49
2019-05-22T15:45:57.938Z,62.98
2019-05-22T15:48:30.912Z,63.06
2019-05-22T15:51:07.093Z,64.47
2019-05-22T15:53:38.019Z,61.23
2019-05-22T15:56:09.774Z,64.82
2019-05-22T15:58:44.208Z,64.80
2019-05-22T16:01:16.261Z,64.50
2019-05-22T16:03:47.628Z,61.49
2019-05-22T16:06:16.393Z,64.14
2019-05-22T16:08:46.453Z,62.45
2019-05-22T16:11:16.249Z,64.96
2019-05-22T16:13:46.690Z,64.89
2019-05-22T16:16:16.092Z,65.42
2019-05-22T16:18:48.308Z,65.02
2019-05-22T16:21:18.703Z,63.29
2019-05-22T16:23:47.802Z,64.45
2019-05-22T16:26:17.704Z,63.48
2019-05-22T16:28:48.033Z,63.92
2019-05-22T16:31:18.771Z,63.88
2019-05-22T16:33:49.648Z,64.70
2019-05-22T16:36:20.406Z,62.36
2019-05-22T16:38:49.280Z,64.91
2019-05-22T16:41:18.802Z,66.81
2019-05-22T16:43:50.551Z,63.46
2019-05-22T16:46:21.799Z,62.09
2019-05-22T16:48:51.983Z,61.15
2019-05-22T16:51:21.977Z,62.39
2019-05-22T16:53:56.352Z,60.43
2019-05-22T16:56:25.734Z,60.34
2019-05-22T16:58:55.216Z,59.71
2019-05-22T17:01:25.870Z,59.56
2019-05-22T17:03:57.803Z,59.64
2019-05-22T17:06:27.979Z,61.67
2019-05-22T17:08:58.489Z,59.79
2019-05-22T17:11:29.075Z,59.35
2019-05-22T17:14:00.862Z,60.95
2019-05-22T17:16:33.803Z,59.59
2019-05-22T17:19:03.210Z,62.77
2019-05-22T17:21:32.714Z,58.80
2019-05-22T17:24:01.942Z,62.43
2019-05-22T17:26:31.022Z,61.08
2019-05-22T17:29:00.248Z,61.31
2019-05-22T17:31:29.259Z,61.53
2019-05-22T17:33:58.793Z,61.08
2019-05-22T17:36:28.382Z,60.08
2019-05-22T17:38:58.148Z,62.64
2019-05-22T17:41:28.729Z,59.38
2019-05-22T17:43:59.748Z,59.56
2019-05-22T17:46:30.866Z,61.48
2019-05-22T17:49:00.163Z,60.97
2019-05-22T17:51:29.774Z,63.01
2019-05-22T17:53:59.074Z,56.79
2019-05-22T17:56:28.572Z,59.41
2019-05-22T17:58:57.293Z,57.91
2019-05-22T18:01:27.107Z,57.79
2019-05-22T18:03:56.090Z,60.97
2019-05-22T18:06:24.706Z,57.74
2019-05-22T18:08:53.616Z,58.65
2019-05-22T18:11:22.587Z,57.06
2019-05-22T18:13:59.179Z,58.26
2019-05-22T18:16:28.475Z,61.51
2019-05-22T18:18:57.535Z,57.24
2019-05-22T18:21:26.529Z,57.57
2019-05-22T18:23:56.316Z,62.44
2019-05-22T18:26:26.305Z,62.01
2019-05-22T18:28:55.223Z,60.90
2019-05-22T18:31:23.948Z,58.34
2019-05-22T18:33:52.660Z,58.05
2019-05-22T18:36:21.350Z,62.80
2019-05-22T18:38:49.897Z,58.87
2019-05-22T18:41:18.588Z,61.38
2019-05-22T18:43:47.270Z,59.61
2019-05-22T18:46:15.963Z,58.64
2019-05-22T18:48:48.091Z,62.89
2019-05-22T18:51:16.066Z,60.42
2019-05-22T18:53:45.298Z,60.92
2019-05-22T18:56:14.179Z,60.84
2019-05-22T18:58:42.986Z,64.67
2019-05-22T19:01:16.211Z,61.24
2019-05-22T19:03:43.575Z,61.65
2019-05-22T19:06:12.483Z,64.03
2019-05-22T19:08:41.100Z,66.81
2019-05-22T19:11:09.766Z,63.58
2019-05-22T19:13:38.880Z,64.37
2019-05-22T19:16:07.969Z,64.36
2019-05-22T19:18:36.876Z,66.54
2019-05-22T19:21:05.439Z,64.25
2019-05-22T19:23:34.137Z,64.68
2019-05-22T19:26:05.643Z,67.23
2019-05-22T19:28:43.641Z,67.61
2019-05-22T19:31:04.668Z,68.52
2019-05-22T19:33:33.352Z,66.39
2019-05-22T19:36:02.051Z,67.82
2019-05-22T19:38:31.042Z,68.15
2019-05-22T19:41:00.126Z,68.37
2019-05-22T19:43:28.818Z,67.79
2019-05-22T19:45:57.936Z,69.99
2019-05-22T19:48:27.627Z,69.18
2019-05-22T19:50:56.573Z,68.07
2019-05-22T19:53:26.264Z,69.05
2019-05-22T19:55:55.356Z,69.36
2019-05-22T19:58:24.733Z,70.17
2019-05-22T20:00:53.427Z,68.81
2019-05-22T20:03:23.313Z,70.52
2019-05-22T20:05:52.104Z,69.90
2019-05-22T20:08:20.833Z,71.17
2019-05-22T20:10:50.845Z,71.15
2019-05-22T20:13:21.427Z,71.55
2019-05-22T20:15:50.013Z,72.08
2019-05-22T20:18:19.374Z,71.68
2019-05-22T20:20:48.561Z,71.80
2019-05-22T20:23:17.355Z,71.82
2019-05-22T20:25:45.961Z,72.96
2019-05-22T20:28:15.450Z,74.75
2019-05-22T20:30:44.225Z,73.39
2019-05-22T20:33:12.921Z,73.47
2019-05-22T20:35:41.909Z,73.77
2019-05-22T20:38:10.753Z,74.34
2019-05-22T20:40:40.023Z,74.27
2019-05-22T20:43:10.105Z,75.75
2019-05-22T20:45:42.246Z,74.40
2019-05-22T20:48:16.738Z,74.65
2019-05-22T20:50:45.473Z,75.63
2019-05-22T20:53:15.565Z,75.27
2019-05-22T20:55:46.001Z,76.00
2019-05-22T20:58:16.484Z,76.59
2019-05-22T21:00:46.465Z,76.98
2019-05-22T21:03:15.362Z,76.51
2019-05-22T21:05:44.232Z,76.17
2019-05-22T21:08:15.039Z,76.17
2019-05-22T21:10:47.544Z,75.90
2019-05-22T21:13:18.027Z,75.94
2019-05-22T21:15:47.405Z,77.08
2019-05-22T21:18:19.496Z,78.53
2019-05-22T21:20:54.675Z,79.32
2019-05-22T21:23:19.804Z,78.60
2019-05-22T21:25:50.414Z,78.40
2019-05-22T21:28:18.892Z,78.45
2019-05-22T21:30:48.789Z,80.50
2019-05-22T21:33:17.842Z,81.36
2019-05-22T21:35:46.922Z,79.99
2019-05-22T21:38:15.724Z,80.72
2019-05-22T21:40:44.780Z,80.48
2019-05-22T21:43:14.692Z,81.81
2019-05-22T21:45:43.698Z,81.48
2019-05-22T21:48:13.283Z,80.90
2019-05-22T21:50:42.467Z,80.31
2019-05-22T21:53:13.214Z,80.80
2019-05-22T21:55:45.519Z,80.68
2019-05-22T21:58:13.087Z,80.82
2019-05-22T22:01:03.665Z,81.42
2019-05-22T22:03:38.018Z,83.71
2019-05-22T22:06:08.825Z,84.07
2019-05-22T22:08:37.401Z,85.07
2019-05-22T22:11:07.000Z,84.51
2019-05-22T22:13:36.626Z,84.09
2019-05-22T22:16:07.124Z,82.73
2019-05-22T22:18:38.030Z,83.72
2019-05-22T22:21:07.368Z,84.38
2019-05-22T22:23:36.759Z,85.09
2019-05-22T22:26:20.374Z,85.06
2019-05-22T22:28:37.689Z,83.46
2019-05-22T22:31:08.472Z,84.46
2019-05-22T22:33:39.046Z,85.61
2019-05-22T22:36:09.267Z,84.14
2019-05-22T22:38:39.146Z,84.85
2019-05-22T22:41:09.384Z,87.13
2019-05-22T22:43:39.191Z,87.75
2019-05-22T22:46:22.363Z,86.85
2019-05-22T22:48:52.673Z,87.30
2019-05-22T22:51:22.045Z,85.65
2019-05-22T22:53:51.153Z,85.93
2019-05-22T22:56:20.277Z,87.74
2019-05-22T22:58:48.938Z,87.74
2019-05-22T23:01:23.092Z,87.35
2019-05-22T23:03:53.888Z,89.69
2019-05-22T23:06:22.972Z,89.56
2019-05-22T23:08:51.723Z,87.87
2019-05-22T23:11:21.840Z,87.99
2019-05-22T23:13:50.410Z,90.55
2019-05-22T23:16:20.610Z,89.64
2019-05-22T23:19:31.503Z,90.29
2019-05-22T23:22:00.830Z,90.61
2019-05-22T23:24:30.720Z,90.46
2019-05-22T23:27:00.426Z,90.15
2019-05-22T23:29:30.221Z,90.46
2019-05-22T23:32:00.769Z,90.43
2019-05-22T23:34:30.158Z,91.10
2019-05-22T23:36:59.972Z,90.17
2019-05-22T23:39:30.150Z,89.51
2019-05-22T23:42:04.102Z,89.17
2019-05-22T23:44:35.319Z,88.37
2019-05-22T23:47:04.802Z,89.16
2019-05-22T23:49:34.307Z,88.64
2019-05-22T23:52:03.769Z,87.30
2019-05-22T23:54:33.260Z,88.15
2019-05-22T23:57:02.630Z,89.04
2019-05-22T23:59:33.255Z,88.70
